»·PEaware :: N346CP KBFL-KMHV

N346CP :: KBFL-KMHV

FLIGHT INFORMATION

Flight Status: Arrived
Operator: Privately registered:
United States
More flights under this callsign
Pilot: Ron M. (31128)
Aircraft: CESSNA 172 SKYHAWK
(C172)
More flights by this aircraft type
Origin: KBFL Meadows
United States
Destination: KMHV Mojave
United States
More flights between these airports :: More routes between these airports
Route:
File this flight plan on PilotEdge
Remarks:
Altitude:
(Current/Filed)
9,500ft
Speed:
(Current/Filed)
100kts
Departed: 05-Jan-21 06:47 PM
Arrived: 05-Jan-21 07:28 PM
Distance/Time
Traveled:
51nm/0:41
Distance/Time
To Go:
Arrived

Flight Plot

Page will automatically refresh every two minutes.


Map Options




Map Legend


Flown Route
Filed Route
Departure Airport
Arrival Airport
Navaid (VOR, NDB)
Fix

Horizontal Profiles

Position Reports

Time Latitude Longitude Heading Altitude Ground
Speed
05-Jan-21 18:29 35.426749 -119.044537 180 484ft 0kts
05-Jan-21 18:30 35.426749 -119.044537 180 484ft 0kts
05-Jan-21 18:31 35.426749 -119.044537 180 484ft 0kts
05-Jan-21 18:32 35.426749 -119.044537 180 484ft 0kts
05-Jan-21 18:33 35.426749 -119.044537 180 484ft 0kts
05-Jan-21 18:34 35.426749 -119.044537 180 484ft 0kts
05-Jan-21 18:35 35.426749 -119.044537 180 484ft 0kts
05-Jan-21 18:36 35.426749 -119.044537 180 484ft 0kts
05-Jan-21 18:37 35.426749 -119.044537 180 484ft 0kts
05-Jan-21 18:38 35.426749 -119.044537 180 484ft 0kts
05-Jan-21 18:39 35.426747 -119.044536 181 484ft 0kts
05-Jan-21 18:40 35.426593 -119.044531 176 483ft 0kts
05-Jan-21 18:41 35.425864 -119.045002 220 480ft 0kts
05-Jan-21 18:42 35.425864 -119.045002 220 480ft 0kts
05-Jan-21 18:43 35.425856 -119.045008 206 480ft 0kts
05-Jan-21 18:44 35.425856 -119.045008 206 480ft 0kts
05-Jan-21 18:45 35.425450 -119.046004 306 476ft 8kts
05-Jan-21 18:46 35.436800 -119.060809 329 1138ft 70kts
05-Jan-21 18:47 35.442893 -119.047933 147 2081ft 80kts
05-Jan-21 18:48 35.427194 -119.028858 122 2982ft 80kts
05-Jan-21 18:49 35.410922 -119.010119 144 3827ft 85kts
05-Jan-21 18:50 35.394741 -118.989421 130 4612ft 87kts
05-Jan-21 18:51 35.385167 -118.976907 128 5075ft 86kts
05-Jan-21 18:52 35.370446 -118.953326 116 5797ft 87kts
05-Jan-21 18:53 35.358438 -118.934369 123 6335ft 90kts
05-Jan-21 18:54 35.344735 -118.908478 112 6976ft 92kts
05-Jan-21 18:55 35.334704 -118.879959 110 7615ft 91kts
05-Jan-21 18:56 35.323567 -118.851404 117 8180ft 95kts
05-Jan-21 18:57 35.310959 -118.822902 112 8745ft 95kts
05-Jan-21 18:58 35.301259 -118.792332 100 9253ft 96kts
05-Jan-21 18:59 35.299389 -118.781927 88 9439ft 91kts
05-Jan-21 19:00 35.293746 -118.747424 103 9534ft 112kts
05-Jan-21 19:01 35.280296 -118.710350 113 9507ft 122kts
05-Jan-21 19:02 35.263015 -118.673665 128 9369ft 128kts
05-Jan-21 19:03 35.243256 -118.638066 122 9419ft 120kts
05-Jan-21 19:04 35.222494 -118.603227 126 9626ft 127kts
05-Jan-21 19:05 35.199692 -118.568553 119 9766ft 131kts
05-Jan-21 19:06 35.186008 -118.529240 103 9479ft 124kts
05-Jan-21 19:07 35.177947 -118.500703 100 9417ft 120kts
05-Jan-21 19:08 35.169443 -118.460623 101 9183ft 123kts
05-Jan-21 19:09 35.159030 -118.428795 114 8917ft 122kts
05-Jan-21 19:10 35.154305 -118.418974 121 8775ft 121kts
05-Jan-21 19:11 35.133161 -118.387782 134 8244ft 124kts
05-Jan-21 19:12 35.110058 -118.359301 134 7144ft 116kts
05-Jan-21 19:13 35.094539 -118.325949 122 5715ft 110kts
05-Jan-21 19:14 35.081243 -118.293502 113 5130ft 107kts
05-Jan-21 19:15 35.070091 -118.259425 100 4745ft 108kts
05-Jan-21 19:16 35.063482 -118.224997 102 4286ft 106kts
05-Jan-21 19:17 35.061741 -118.210850 107 4194ft 104kts
05-Jan-21 19:18 35.051748 -118.178303 105 4049ft 114kts
05-Jan-21 19:19 35.036229 -118.147715 97 3644ft 95kts
05-Jan-21 19:20 35.049687 -118.125756 353 3529ft 95kts
05-Jan-21 19:22 35.069829 -118.143201 308 3628ft 105kts
05-Jan-21 19:23 35.085052 -118.161222 24 3759ft 62kts
05-Jan-21 19:24 35.073071 -118.142557 152 3601ft 92kts
05-Jan-21 19:25 35.053574 -118.126403 107 3753ft 74kts
05-Jan-21 19:26 35.040347 -118.112836 200 3713ft 89kts
05-Jan-21 19:27 35.042905 -118.128965 320 2870ft 59kts
05-Jan-21 19:28 35.048583 -118.136779 214 2698ft 8kts

Navigation Log

Ident Type
Flight plan parsing failed, navigation log unavailable